Time;durP1;ratioP1;P1;durP2;ratioP2;P2;SDS_P1;SDS_P2;PMS_P1;PMS_P2;Temp;Humidity;BMP_temperature;BMP_pressure;BME280_temperature;BME280_humidity;BME280_pressure;Samples;Min_cycle;Max_cycle;Signal;HPM_P1;HPM_P2
2022/07/06 00:01:20;;;;;;;10.50;5.23;;;;;;;;;;5055550;28;20203;-42
2022/07/06 00:03:46;;;;;;;6.33;4.37;;;;;;;;;;5052599;28;21971;-42
2022/07/06 00:06:12;;;;;;;8.10;4.37;;;;;;;;;;5045497;28;20774;-41
2022/07/06 00:08:39;;;;;;;10.77;5.00;;;;;;;;;;5049055;28;20483;-42
2022/07/06 00:11:05;;;;;;;9.07;4.67;;;;;;;;;;5053053;28;20206;-42
2022/07/06 00:13:31;;;;;;;7.37;4.57;;;;;;;;;;5053069;28;20213;-42
2022/07/06 00:15:57;;;;;;;5.20;4.43;;;;;;;;;;5052689;28;20167;-42
2022/07/06 00:18:24;;;;;;;8.03;4.77;;;;;;;;;;5051329;28;20198;-42
2022/07/06 00:20:50;;;;;;;9.70;4.97;;;;;;;;;;5053138;28;20199;-41
2022/07/06 00:23:16;;;;;;;6.80;4.50;;;;;;;;;;5052928;28;20926;-42
2022/07/06 00:25:42;;;;;;;9.50;4.33;;;;;;;;;;5049580;28;20256;-42
2022/07/06 00:28:08;;;;;;;7.23;4.47;;;;;;;;;;5050651;28;20217;-40
2022/07/06 00:30:34;;;;;;;9.77;4.30;;;;;;;;;;5055429;28;20181;-41
2022/07/06 00:33:00;;;;;;;9.60;4.47;;;;;;;;;;5055412;28;20166;-42
2022/07/06 00:35:27;;;;;;;7.73;4.00;;;;;;;;;;5051589;28;20251;-42
2022/07/06 00:37:53;;;;;;;9.17;4.27;;;;;;;;;;5051802;28;20183;-42
2022/07/06 00:40:19;;;;;;;7.43;3.80;;;;;;;;;;5052056;28;20198;-41
2022/07/06 00:42:46;;;;;;;4.27;3.37;;;;;;;;;;5057428;28;20171;-41
2022/07/06 00:45:13;;;;;;;10.43;3.60;;;;;;;;;;5049752;28;20367;-42
2022/07/06 00:47:39;;;;;;;6.07;3.23;;;;;;;;;;5052890;28;20178;-41
2022/07/06 00:50:22;;;;;;;6.70;3.47;;;;;;;;;;5053815;28;20309;-41
2022/07/06 00:52:49;;;;;;;7.10;3.03;;;;;;;;;;5057427;28;20294;-42
2022/07/06 00:55:16;;;;;;;7.37;3.10;;;;;;;;;;5053396;28;20197;-41
2022/07/06 00:57:43;;;;;;;4.77;3.20;;;;;;;;;;5054823;28;20257;-42
2022/07/06 01:00:10;;;;;;;6.60;3.10;;;;;;;;;;5049993;28;20181;-42
2022/07/06 01:02:37;;;;;;;4.70;2.87;;;;;;;;;;5053930;28;20182;-40
2022/07/06 01:05:07;;;;;;;8.33;2.90;;;;;;;;;;5050476;28;20494;-41
2022/07/06 01:07:34;;;;;;;4.03;2.60;;;;;;;;;;5053078;28;20811;-40
2022/07/06 01:10:00;;;;;;;5.33;2.80;;;;;;;;;;5052877;28;20181;-41
2022/07/06 01:12:26;;;;;;;5.33;3.07;;;;;;;;;;5051394;28;20406;-41
2022/07/06 01:14:52;;;;;;;6.43;2.77;;;;;;;;;;5050578;28;21069;-41
2022/07/06 01:17:19;;;;;;;5.23;2.30;;;;;;;;;;5052614;28;20183;-40
2022/07/06 01:19:45;;;;;;;5.53;3.00;;;;;;;;;;5048646;28;20202;-41
2022/07/06 01:22:11;;;;;;;6.77;2.60;;;;;;;;;;5052580;28;20822;-41
2022/07/06 01:24:38;;;;;;;5.00;2.73;;;;;;;;;;5049533;28;20244;-40
2022/07/06 01:27:05;;;;;;;7.50;3.00;;;;;;;;;;5049477;28;20171;-41
2022/07/06 01:29:32;;;;;;;5.70;2.63;;;;;;;;;;5052072;28;20963;-41
2022/07/06 01:31:58;;;;;;;4.70;2.83;;;;;;;;;;5051090;28;20210;-40
2022/07/06 01:34:24;;;;;;;6.57;2.77;;;;;;;;;;5049719;28;20250;-41
2022/07/06 01:36:50;;;;;;;5.27;2.60;;;;;;;;;;5049503;28;20167;-42
2022/07/06 01:39:16;;;;;;;3.30;2.70;;;;;;;;;;5048889;28;20182;-43
2022/07/06 01:41:42;;;;;;;9.37;2.57;;;;;;;;;;5050319;28;20202;-42
2022/07/06 01:44:08;;;;;;;5.27;2.50;;;;;;;;;;5046773;28;21125;-39
2022/07/06 01:46:35;;;;;;;5.87;2.57;;;;;;;;;;5052619;28;20171;-38
2022/07/06 01:49:01;;;;;;;4.93;2.30;;;;;;;;;;5050881;28;20199;-40
2022/07/06 01:51:27;;;;;;;6.83;2.47;;;;;;;;;;5054951;28;20182;-40
2022/07/06 01:53:53;;;;;;;2.73;2.23;;;;;;;;;;5053145;28;20955;-40
2022/07/06 01:56:20;;;;;;;3.00;2.30;;;;;;;;;;5051549;28;20180;-41
2022/07/06 01:58:46;;;;;;;3.13;2.20;;;;;;;;;;5053952;28;20175;-40
2022/07/06 02:01:19;;;;;;;6.10;2.30;;;;;;;;;;5046928;28;20214;-39
2022/07/06 02:03:46;;;;;;;6.67;2.30;;;;;;;;;;5050403;28;20946;-41
2022/07/06 02:06:12;;;;;;;3.63;1.80;;;;;;;;;;5053505;28;20213;-40
2022/07/06 02:08:39;;;;;;;3.73;2.40;;;;;;;;;;5054912;28;20170;-39
2022/07/06 02:11:05;;;;;;;4.40;2.20;;;;;;;;;;5047167;28;20181;-40
2022/07/06 02:13:31;;;;;;;3.77;2.40;;;;;;;;;;5053477;28;20190;-41
2022/07/06 02:15:58;;;;;;;3.27;1.97;;;;;;;;;;5055121;28;20174;-40
2022/07/06 02:18:24;;;;;;;5.10;2.17;;;;;;;;;;5052165;28;20198;-40
2022/07/06 02:20:50;;;;;;;3.10;2.00;;;;;;;;;;5048279;28;20198;-41
2022/07/06 02:23:16;;;;;;;4.60;2.13;;;;;;;;;;5051309;28;20187;-41
2022/07/06 02:25:42;;;;;;;3.30;2.07;;;;;;;;;;5051662;28;20183;-41
2022/07/06 02:28:08;;;;;;;6.23;2.33;;;;;;;;;;5054418;28;20248;-39
2022/07/06 02:30:34;;;;;;;5.10;2.43;;;;;;;;;;5050324;28;20183;-39
2022/07/06 02:33:00;;;;;;;4.67;2.33;;;;;;;;;;5049632;28;20170;-40
2022/07/06 02:35:26;;;;;;;6.70;2.53;;;;;;;;;;5052807;28;20182;-40
2022/07/06 02:37:53;;;;;;;3.40;2.03;;;;;;;;;;5053858;28;20190;-40
2022/07/06 02:40:19;;;;;;;4.77;2.10;;;;;;;;;;5052728;28;22137;-40
2022/07/06 02:42:45;;;;;;;3.00;2.00;;;;;;;;;;5051428;28;20183;-40
2022/07/06 02:45:11;;;;;;;2.23;2.00;;;;;;;;;;5055949;28;20980;-41
2022/07/06 02:47:37;;;;;;;5.57;2.10;;;;;;;;;;5051173;28;21009;-39
2022/07/06 02:50:04;;;;;;;4.90;1.80;;;;;;;;;;5049314;28;20175;-41
2022/07/06 02:52:30;;;;;;;3.00;1.90;;;;;;;;;;5049360;28;20251;-41
2022/07/06 02:54:56;;;;;;;3.47;1.97;;;;;;;;;;5055254;28;20185;-41
2022/07/06 02:57:23;;;;;;;5.17;2.10;;;;;;;;;;5055683;28;20212;-43
2022/07/06 02:59:52;;;;;;;3.63;2.00;;;;;;;;;;5048750;28;20245;-41
2022/07/06 03:02:18;;;;;;;5.37;1.97;;;;;;;;;;5052284;28;20198;-39
2022/07/06 03:04:44;;;;;;;4.63;2.07;;;;;;;;;;5054649;28;20173;-42
2022/07/06 03:07:10;;;;;;;4.03;1.90;;;;;;;;;;5051234;28;20167;-39
2022/07/06 03:09:36;;;;;;;3.00;2.07;;;;;;;;;;5049098;28;21007;-41
2022/07/06 03:12:02;;;;;;;2.57;1.80;;;;;;;;;;5049553;28;20182;-41
2022/07/06 03:14:28;;;;;;;3.03;1.80;;;;;;;;;;5051532;28;20178;-40
2022/07/06 03:16:54;;;;;;;4.13;1.83;;;;;;;;;;5056088;28;20926;-41
2022/07/06 03:19:21;;;;;;;4.40;2.03;;;;;;;;;;5045184;28;20189;-41
2022/07/06 03:21:47;;;;;;;4.97;1.90;;;;;;;;;;5051695;28;20703;-40
2022/07/06 03:24:13;;;;;;;2.47;1.87;;;;;;;;;;5052767;28;21000;-41
2022/07/06 03:26:39;;;;;;;5.77;2.17;;;;;;;;;;5047773;28;20171;-39
2022/07/06 03:29:06;;;;;;;6.90;1.80;;;;;;;;;;5050080;28;20979;-41
2022/07/06 03:31:32;;;;;;;4.47;1.83;;;;;;;;;;5052521;28;20327;-42
2022/07/06 03:33:58;;;;;;;7.40;2.30;;;;;;;;;;5052492;28;20175;-42
2022/07/06 03:36:24;;;;;;;3.17;1.90;;;;;;;;;;5049923;28;20183;-42
2022/07/06 03:38:50;;;;;;;8.20;2.10;;;;;;;;;;5053253;28;20183;-41
2022/07/06 03:41:16;;;;;;;3.60;1.90;;;;;;;;;;5052706;28;21079;-41
2022/07/06 03:43:42;;;;;;;4.83;2.10;;;;;;;;;;5051315;28;20178;-41
2022/07/06 03:46:08;;;;;;;3.57;1.90;;;;;;;;;;5049499;28;20181;-42
2022/07/06 03:48:34;;;;;;;3.03;1.90;;;;;;;;;;5042795;28;20170;-42
2022/07/06 03:51:01;;;;;;;5.40;1.80;;;;;;;;;;5046463;28;20897;-42
2022/07/06 03:53:27;;;;;;;4.37;2.00;;;;;;;;;;5046789;28;20855;-41
2022/07/06 03:58:37;;;;;;;4.83;2.20;;;;;;;;;;5050647;28;20225;-40
2022/07/06 04:01:03;;;;;;;6.83;2.07;;;;;;;;;;5049441;28;20319;-41
2022/07/06 04:03:30;;;;;;;2.43;2.07;;;;;;;;;;5050738;28;20171;-41
2022/07/06 04:05:56;;;;;;;5.53;2.07;;;;;;;;;;5046390;28;20963;-41
2022/07/06 04:08:22;;;;;;;5.00;2.00;;;;;;;;;;5049617;28;20234;-42
2022/07/06 04:10:48;;;;;;;7.03;2.50;;;;;;;;;;5049943;28;20182;-42
2022/07/06 04:13:14;;;;;;;5.40;2.20;;;;;;;;;;5048017;28;20183;-42
2022/07/06 04:15:40;;;;;;;6.10;1.97;;;;;;;;;;5051758;28;20285;-42
2022/07/06 04:18:06;;;;;;;3.83;1.87;;;;;;;;;;5054670;28;20273;-40
2022/07/06 04:20:32;;;;;;;3.23;2.00;;;;;;;;;;5048046;28;20194;-41
2022/07/06 04:22:58;;;;;;;4.47;1.93;;;;;;;;;;5049995;28;20286;-41
2022/07/06 04:25:25;;;;;;;3.63;2.20;;;;;;;;;;5048202;28;20179;-41
2022/07/06 04:27:51;;;;;;;4.70;2.17;;;;;;;;;;5049219;28;20176;-42
2022/07/06 04:30:17;;;;;;;2.80;2.03;;;;;;;;;;5046527;28;20214;-42
2022/07/06 04:32:43;;;;;;;4.57;2.40;;;;;;;;;;5049361;28;20259;-42
2022/07/06 04:35:10;;;;;;;4.33;2.07;;;;;;;;;;5052896;28;21063;-42
2022/07/06 04:37:37;;;;;;;6.80;2.20;;;;;;;;;;5066044;28;20278;-41
2022/07/06 04:40:03;;;;;;;4.43;2.17;;;;;;;;;;5046466;28;20175;-41
2022/07/06 04:42:29;;;;;;;5.93;1.70;;;;;;;;;;5050851;28;20248;-40
2022/07/06 04:44:55;;;;;;;6.03;2.07;;;;;;;;;;5048027;28;20174;-41
2022/07/06 04:47:21;;;;;;;6.57;1.83;;;;;;;;;;5049515;28;20171;-41
2022/07/06 04:49:47;;;;;;;2.87;1.57;;;;;;;;;;5052731;28;20178;-40
2022/07/06 04:52:13;;;;;;;4.60;1.70;;;;;;;;;;5052764;28;20334;-42
2022/07/06 04:54:40;;;;;;;4.70;1.60;;;;;;;;;;5056033;28;20190;-42
2022/07/06 04:57:06;;;;;;;2.47;1.47;;;;;;;;;;5052614;28;21036;-42
2022/07/06 04:59:32;;;;;;;4.83;1.70;;;;;;;;;;5045696;28;21061;-41
2022/07/06 05:01:58;;;;;;;4.63;1.63;;;;;;;;;;5049061;28;20227;-42
2022/07/06 05:04:25;;;;;;;4.33;1.40;;;;;;;;;;5042151;28;20209;-41
2022/07/06 05:06:51;;;;;;;3.97;1.67;;;;;;;;;;5041596;28;20179;-42
2022/07/06 05:09:17;;;;;;;7.00;1.70;;;;;;;;;;5041408;28;20186;-41
2022/07/06 05:11:44;;;;;;;2.80;1.33;;;;;;;;;;5041486;28;20183;-41
2022/07/06 05:14:11;;;;;;;4.60;1.80;;;;;;;;;;5033300;28;20183;-42
2022/07/06 05:16:37;;;;;;;5.03;1.50;;;;;;;;;;5044818;28;20190;-41
2022/07/06 05:19:03;;;;;;;2.13;1.47;;;;;;;;;;5042529;28;20202;-42
2022/07/06 05:21:30;;;;;;;6.43;1.60;;;;;;;;;;5041045;28;20213;-42
2022/07/06 05:23:56;;;;;;;3.93;1.60;;;;;;;;;;5043650;28;20203;-42
2022/07/06 05:26:22;;;;;;;3.13;1.47;;;;;;;;;;5046689;28;20265;-41
2022/07/06 05:28:49;;;;;;;6.07;1.53;;;;;;;;;;5036112;28;23033;-42
2022/07/06 05:31:15;;;;;;;5.03;1.70;;;;;;;;;;5041259;28;22190;-41
2022/07/06 05:33:42;;;;;;;6.13;1.67;;;;;;;;;;5042973;28;20268;-42
2022/07/06 05:36:08;;;;;;;4.77;1.40;;;;;;;;;;5037379;28;20188;-43
2022/07/06 05:38:35;;;;;;;3.20;1.23;;;;;;;;;;5044704;28;20186;-43
2022/07/06 05:41:01;;;;;;;3.43;1.50;;;;;;;;;;5048689;28;20191;-43
2022/07/06 05:43:27;;;;;;;3.63;1.13;;;;;;;;;;5052492;28;21053;-42
2022/07/06 05:45:54;;;;;;;6.07;1.33;;;;;;;;;;5067756;27;20182;-43
2022/07/06 05:51:05;;;;;;;5.13;1.40;;;;;;;;;;5053949;28;20272;-41
2022/07/06 05:53:31;;;;;;;2.57;1.07;;;;;;;;;;5063449;28;20191;-41
2022/07/06 05:55:57;;;;;;;3.07;1.23;;;;;;;;;;5050297;28;20183;-43
2022/07/06 05:58:25;;;;;;;1.70;1.30;;;;;;;;;;5049783;28;20280;-43
2022/07/06 06:00:51;;;;;;;7.30;2.23;;;;;;;;;;5056450;28;21062;-43
2022/07/06 06:03:18;;;;;;;4.13;1.30;;;;;;;;;;5064948;28;20175;-40
2022/07/06 06:05:44;;;;;;;6.30;1.60;;;;;;;;;;5050686;28;20888;-42
2022/07/06 06:08:11;;;;;;;3.60;1.33;;;;;;;;;;5039367;28;20865;-41
2022/07/06 06:10:37;;;;;;;2.80;1.20;;;;;;;;;;5041305;28;20186;-42
2022/07/06 06:13:03;;;;;;;4.03;1.30;;;;;;;;;;5039353;28;20186;-41
2022/07/06 06:15:30;;;;;;;4.00;1.20;;;;;;;;;;5043017;28;20202;-41
2022/07/06 06:17:56;;;;;;;4.93;1.40;;;;;;;;;;5046779;28;21342;-42
2022/07/06 06:20:23;;;;;;;5.60;1.60;;;;;;;;;;5061002;28;20186;-40
2022/07/06 06:22:50;;;;;;;3.17;1.10;;;;;;;;;;5048537;28;20183;-42
2022/07/06 06:25:18;;;;;;;4.40;1.10;;;;;;;;;;5047644;28;20175;-42
2022/07/06 06:27:44;;;;;;;3.33;1.37;;;;;;;;;;5039754;28;20185;-42
2022/07/06 06:30:11;;;;;;;4.10;1.40;;;;;;;;;;5034627;28;20179;-41
2022/07/06 06:32:38;;;;;;;5.87;1.40;;;;;;;;;;5022090;28;20190;-43
2022/07/06 06:35:05;;;;;;;4.87;1.50;;;;;;;;;;5037222;28;20186;-41
2022/07/06 06:37:31;;;;;;;8.30;1.40;;;;;;;;;;5040481;28;20255;-42
2022/07/06 06:39:58;;;;;;;4.83;1.37;;;;;;;;;;5035841;28;20187;-41
2022/07/06 06:42:24;;;;;;;5.43;1.50;;;;;;;;;;5060932;27;20624;-42
2022/07/06 06:44:51;;;;;;;3.73;1.33;;;;;;;;;;5047386;28;20881;-42
2022/07/06 06:47:19;;;;;;;8.47;1.47;;;;;;;;;;5036607;28;20186;-43
2022/07/06 06:49:45;;;;;;;3.77;1.50;;;;;;;;;;5042516;28;20178;-42
2022/07/06 06:52:11;;;;;;;4.20;1.37;;;;;;;;;;5050909;28;20184;-42
2022/07/06 06:54:37;;;;;;;7.80;1.70;;;;;;;;;;5047262;28;20194;-42
2022/07/06 06:57:03;;;;;;;14.57;1.80;;;;;;;;;;5054509;28;20210;-42
2022/07/06 06:59:29;;;;;;;4.97;1.30;;;;;;;;;;5047445;28;20690;-42
2022/07/06 07:01:55;;;;;;;5.93;1.67;;;;;;;;;;5050415;28;20206;-40
2022/07/06 07:04:21;;;;;;;4.20;1.33;;;;;;;;;;5048847;28;21304;-40
2022/07/06 07:06:47;;;;;;;3.53;1.17;;;;;;;;;;5046532;28;20202;-41
2022/07/06 07:09:14;;;;;;;5.00;1.70;;;;;;;;;;5041157;28;21119;-41
2022/07/06 07:11:40;;;;;;;7.07;1.80;;;;;;;;;;5043660;28;20263;-41
2022/07/06 07:14:06;;;;;;;5.03;1.40;;;;;;;;;;5046468;28;20618;-40
2022/07/06 07:16:32;;;;;;;3.60;1.57;;;;;;;;;;5046420;28;20423;-40
2022/07/06 07:18:59;;;;;;;2.80;1.70;;;;;;;;;;5047603;28;20206;-40
2022/07/06 07:21:25;;;;;;;5.67;1.37;;;;;;;;;;5043000;28;20935;-41
2022/07/06 07:23:51;;;;;;;7.93;1.50;;;;;;;;;;5051753;28;20206;-39
2022/07/06 07:26:18;;;;;;;4.50;1.67;;;;;;;;;;5048818;28;21009;-41
2022/07/06 07:28:44;;;;;;;8.13;1.87;;;;;;;;;;5046388;28;20209;-40
2022/07/06 07:31:10;;;;;;;4.17;1.40;;;;;;;;;;5043581;28;20738;-41
2022/07/06 07:33:36;;;;;;;7.33;2.13;;;;;;;;;;5044778;28;20182;-41
2022/07/06 07:36:02;;;;;;;5.07;1.80;;;;;;;;;;5046946;28;20711;-41
2022/07/06 07:38:28;;;;;;;6.50;1.77;;;;;;;;;;5047691;28;20190;-41
2022/07/06 07:40:54;;;;;;;6.30;1.50;;;;;;;;;;5049281;28;20203;-41
2022/07/06 07:43:21;;;;;;;4.13;1.53;;;;;;;;;;5049871;28;20178;-43
2022/07/06 07:45:48;;;;;;;6.13;1.60;;;;;;;;;;5049493;28;20530;-43
2022/07/06 07:48:15;;;;;;;3.47;1.60;;;;;;;;;;5043492;28;20186;-43
2022/07/06 07:50:41;;;;;;;3.27;1.37;;;;;;;;;;5043402;28;20170;-43
2022/07/06 07:53:07;;;;;;;6.10;1.67;;;;;;;;;;5044783;28;20183;-40
2022/07/06 07:55:34;;;;;;;7.03;1.70;;;;;;;;;;5042015;28;20686;-40
2022/07/06 07:58:00;;;;;;;6.47;1.80;;;;;;;;;;5054155;28;20183;-40
2022/07/06 08:00:28;;;;;;;5.63;1.93;;;;;;;;;;5045645;28;20175;-39
2022/07/06 08:02:54;;;;;;;6.93;1.90;;;;;;;;;;5047397;28;20590;-41
2022/07/06 08:05:20;;;;;;;9.53;1.73;;;;;;;;;;5048515;28;20447;-40
2022/07/06 08:07:47;;;;;;;4.90;1.80;;;;;;;;;;5052429;28;20198;-41
2022/07/06 08:10:13;;;;;;;5.10;1.63;;;;;;;;;;5046084;28;20181;-40
2022/07/06 08:12:39;;;;;;;6.50;2.00;;;;;;;;;;5045705;28;20180;-41
2022/07/06 08:15:05;;;;;;;4.93;2.10;;;;;;;;;;5048911;28;20180;-40
2022/07/06 08:17:31;;;;;;;3.40;1.63;;;;;;;;;;5052010;28;20704;-41
2022/07/06 08:19:57;;;;;;;5.03;1.83;;;;;;;;;;5055053;28;20498;-41
2022/07/06 08:22:24;;;;;;;9.20;2.00;;;;;;;;;;5053812;28;20207;-41
2022/07/06 08:24:50;;;;;;;5.10;1.90;;;;;;;;;;5054642;28;20720;-41
2022/07/06 08:27:16;;;;;;;5.87;1.90;;;;;;;;;;5053801;28;20562;-41
2022/07/06 08:29:42;;;;;;;5.93;2.20;;;;;;;;;;5055449;28;20179;-41
2022/07/06 08:32:08;;;;;;;5.70;2.10;;;;;;;;;;5043632;28;20467;-40
2022/07/06 08:34:34;;;;;;;7.13;2.20;;;;;;;;;;5048088;28;20183;-41
2022/07/06 08:37:01;;;;;;;5.90;1.97;;;;;;;;;;5050737;28;20549;-41
2022/07/06 08:39:27;;;;;;;4.73;1.83;;;;;;;;;;5049683;28;20525;-41
2022/07/06 08:41:54;;;;;;;7.77;2.20;;;;;;;;;;5044807;28;20203;-40
2022/07/06 08:44:20;;;;;;;4.30;1.90;;;;;;;;;;5048107;28;22075;-41
2022/07/06 08:46:46;;;;;;;5.17;1.70;;;;;;;;;;5049488;28;21061;-41
2022/07/06 08:49:13;;;;;;;7.00;2.17;;;;;;;;;;5045009;28;20618;-41
2022/07/06 08:51:41;;;;;;;6.43;2.23;;;;;;;;;;5042490;28;20722;-41
2022/07/06 08:54:07;;;;;;;7.20;2.10;;;;;;;;;;5048241;28;20504;-41
2022/07/06 08:56:34;;;;;;;5.73;2.17;;;;;;;;;;5053840;28;20702;-41
2022/07/06 08:59:00;;;;;;;7.17;2.20;;;;;;;;;;5050649;28;20746;-41
2022/07/06 09:01:27;;;;;;;7.47;2.23;;;;;;;;;;5053957;28;20941;-40
2022/07/06 09:03:54;;;;;;;7.47;2.50;;;;;;;;;;5052850;28;20179;-41
2022/07/06 09:06:24;;;;;;;6.00;2.27;;;;;;;;;;5051953;28;20289;-41
2022/07/06 09:08:53;;;;;;;4.67;2.30;;;;;;;;;;5055408;28;20807;-41
2022/07/06 09:11:19;;;;;;;7.93;2.20;;;;;;;;;;5050969;28;20178;-40
2022/07/06 09:13:45;;;;;;;5.93;2.17;;;;;;;;;;5050510;28;20179;-42
2022/07/06 09:16:16;;;;;;;8.60;2.27;;;;;;;;;;5049580;28;20178;-42
2022/07/06 09:18:46;;;;;;;2.83;1.80;;;;;;;;;;5054400;28;20645;-43
2022/07/06 09:21:12;;;;;;;4.57;2.00;;;;;;;;;;5052745;28;20199;-43
2022/07/06 09:23:38;;;;;;;9.90;1.90;;;;;;;;;;5048537;28;20373;-42
2022/07/06 09:26:06;;;;;;;5.63;1.90;;;;;;;;;;5049996;28;20706;-42
2022/07/06 09:28:50;;;;;;;3.57;1.90;;;;;;;;;;5053106;28;20214;-39
2022/07/06 09:31:16;;;;;;;8.63;2.47;;;;;;;;;;5050471;28;20213;-41
2022/07/06 09:33:55;;;;;;;5.67;1.90;;;;;;;;;;5049584;28;20991;-40
2022/07/06 09:36:38;;;;;;;3.80;2.10;;;;;;;;;;5053312;28;20178;-41
2022/07/06 09:39:16;;;;;;;6.00;2.27;;;;;;;;;;5046369;28;20186;-40
2022/07/06 09:41:42;;;;;;;3.67;1.73;;;;;;;;;;5048932;28;20210;-41
2022/07/06 09:44:10;;;;;;;4.33;1.83;;;;;;;;;;5045001;28;20606;-40
2022/07/06 09:46:43;;;;;;;8.60;2.17;;;;;;;;;;5051629;28;20175;-41
2022/07/06 09:49:09;;;;;;;8.37;2.30;;;;;;;;;;5047199;28;20254;-41
2022/07/06 09:51:39;;;;;;;5.60;2.20;;;;;;;;;;5044961;28;20179;-41
2022/07/06 09:54:11;;;;;;;8.40;2.00;;;;;;;;;;5046886;28;20272;-43
2022/07/06 09:56:40;;;;;;;5.23;2.20;;;;;;;;;;5051597;28;20170;-43
2022/07/06 09:59:10;;;;;;;4.07;2.47;;;;;;;;;;5044682;28;20863;-43
2022/07/06 10:01:37;;;;;;;5.67;2.10;;;;;;;;;;5047905;28;21097;-42
2022/07/06 10:04:04;;;;;;;4.90;2.00;;;;;;;;;;5045827;28;20181;-42
2022/07/06 10:06:30;;;;;;;5.07;1.90;;;;;;;;;;5048178;28;20240;-42
2022/07/06 10:08:58;;;;;;;7.20;2.10;;;;;;;;;;5047951;28;20168;-42
2022/07/06 10:11:24;;;;;;;3.43;1.90;;;;;;;;;;5044922;28;20182;-42
2022/07/06 10:13:54;;;;;;;4.87;2.00;;;;;;;;;;5046456;28;20747;-42
2022/07/06 10:16:22;;;;;;;5.87;2.17;;;;;;;;;;5048258;28;20679;-42
2022/07/06 10:18:49;;;;;;;6.37;2.27;;;;;;;;;;5046033;28;20194;-41
2022/07/06 10:21:16;;;;;;;7.03;2.13;;;;;;;;;;5043560;28;20191;-41
2022/07/06 10:23:42;;;;;;;6.70;2.20;;;;;;;;;;5047382;28;20620;-42
2022/07/06 10:26:10;;;;;;;4.13;1.90;;;;;;;;;;5046194;28;20173;-41
2022/07/06 10:28:36;;;;;;;5.00;2.20;;;;;;;;;;5050959;28;20294;-42
2022/07/06 10:31:03;;;;;;;8.13;2.50;;;;;;;;;;5043584;28;20198;-41
2022/07/06 10:33:29;;;;;;;4.20;2.10;;;;;;;;;;5043099;28;20217;-42
2022/07/06 10:35:55;;;;;;;5.27;2.33;;;;;;;;;;5045280;28;20992;-42
2022/07/06 10:38:31;;;;;;;6.93;2.07;;;;;;;;;;5044436;28;20208;-41
2022/07/06 10:41:02;;;;;;;6.47;2.00;;;;;;;;;;5042756;28;20855;-42
2022/07/06 10:43:33;;;;;;;6.10;2.40;;;;;;;;;;5045659;28;20181;-42
2022/07/06 10:45:59;;;;;;;6.90;2.20;;;;;;;;;;5047012;28;20466;-41
2022/07/06 10:48:34;;;;;;;6.07;2.20;;;;;;;;;;5044573;28;20587;-42
2022/07/06 10:51:01;;;;;;;4.93;2.60;;;;;;;;;;5041516;28;20181;-42
2022/07/06 10:53:40;;;;;;;4.30;2.47;;;;;;;;;;5048156;28;20253;-42
2022/07/06 10:56:07;;;;;;;6.20;2.30;;;;;;;;;;5045001;28;20182;-42
2022/07/06 10:58:36;;;;;;;7.00;2.47;;;;;;;;;;5051000;28;20714;-42
2022/07/06 11:01:03;;;;;;;7.97;2.20;;;;;;;;;;5049332;28;20620;-41
2022/07/06 11:03:41;;;;;;;4.90;2.00;;;;;;;;;;5045210;28;20167;-42
2022/07/06 11:06:09;;;;;;;3.70;2.10;;;;;;;;;;5048114;28;20175;-42
2022/07/06 11:08:46;;;;;;;5.17;2.07;;;;;;;;;;5048533;28;20167;-41
2022/07/06 11:11:12;;;;;;;5.20;2.20;;;;;;;;;;5051906;28;20261;-40
2022/07/06 11:13:53;;;;;;;4.47;2.30;;;;;;;;;;5050738;28;20460;-41
2022/07/06 11:16:19;;;;;;;5.93;2.03;;;;;;;;;;5055603;28;20271;-41
2022/07/06 11:19:12;;;;;;;4.57;2.03;;;;;;;;;;5056329;28;21135;-41
2022/07/06 11:21:41;;;;;;;6.53;2.63;;;;;;;;;;5047099;28;20215;-41
2022/07/06 11:24:10;;;;;;;6.27;2.13;;;;;;;;;;5050523;28;20686;-41
2022/07/06 11:26:36;;;;;;;4.57;2.17;;;;;;;;;;5055279;28;20526;-41
2022/07/06 11:29:06;;;;;;;4.53;2.47;;;;;;;;;;5053858;28;20531;-41
2022/07/06 11:31:36;;;;;;;6.60;2.13;;;;;;;;;;5049744;28;20172;-41
2022/07/06 11:34:03;;;;;;;4.97;2.00;;;;;;;;;;5045493;28;20431;-42
2022/07/06 11:36:29;;;;;;;5.80;2.60;;;;;;;;;;5051579;28;20426;-41
2022/07/06 11:38:55;;;;;;;6.07;2.27;;;;;;;;;;5047924;28;20688;-40
2022/07/06 11:41:21;;;;;;;6.10;2.30;;;;;;;;;;5048612;28;20658;-41
2022/07/06 11:43:51;;;;;;;6.83;2.20;;;;;;;;;;5054567;28;20221;-41
2022/07/06 11:46:19;;;;;;;4.97;2.30;;;;;;;;;;5052590;28;20172;-40
2022/07/06 11:48:49;;;;;;;6.40;2.20;;;;;;;;;;5047614;28;20598;-41
2022/07/06 11:51:16;;;;;;;7.70;2.60;;;;;;;;;;5046926;28;20177;-40
2022/07/06 11:53:49;;;;;;;5.97;2.40;;;;;;;;;;5052394;28;20186;-43
2022/07/06 11:56:18;;;;;;;4.97;2.10;;;;;;;;;;5055235;28;20179;-42
2022/07/06 11:58:46;;;;;;;5.77;2.10;;;;;;;;;;5052312;28;20187;-43
2022/07/06 12:01:13;;;;;;;7.30;2.33;;;;;;;;;;5052614;28;20459;-41
2022/07/06 12:03:39;;;;;;;9.00;2.30;;;;;;;;;;5049149;28;20159;-41
2022/07/06 12:06:06;;;;;;;7.90;2.30;;;;;;;;;;5053720;28;20876;-41
2022/07/06 12:08:34;;;;;;;6.93;2.40;;;;;;;;;;5052335;28;20172;-40
2022/07/06 12:11:00;;;;;;;5.93;2.20;;;;;;;;;;5047841;28;20282;-41
2022/07/06 12:13:26;;;;;;;7.20;2.10;;;;;;;;;;5054326;28;20483;-40
2022/07/06 12:15:53;;;;;;;6.90;2.13;;;;;;;;;;5055358;28;20179;-40
2022/07/06 12:18:19;;;;;;;5.40;2.20;;;;;;;;;;5050537;28;20518;-41
2022/07/06 12:20:45;;;;;;;5.13;2.07;;;;;;;;;;5052929;28;20657;-41
2022/07/06 12:23:11;;;;;;;6.00;2.17;;;;;;;;;;5051971;28;20184;-40
2022/07/06 12:25:37;;;;;;;3.77;1.90;;;;;;;;;;5054718;28;20819;-41
2022/07/06 12:28:04;;;;;;;6.23;2.23;;;;;;;;;;5053870;28;20878;-40
2022/07/06 12:30:30;;;;;;;7.37;1.97;;;;;;;;;;5052941;28;21209;-40
2022/07/06 12:33:16;;;;;;;4.57;2.10;;;;;;;;;;5054659;28;20172;-41
2022/07/06 12:35:43;;;;;;;4.83;2.07;;;;;;;;;;5057014;28;20637;-43
2022/07/06 12:38:09;;;;;;;5.50;1.97;;;;;;;;;;5050150;28;20177;-39
2022/07/06 12:40:38;;;;;;;3.20;1.60;;;;;;;;;;5052053;28;20832;-41
2022/07/06 12:43:05;;;;;;;5.07;1.83;;;;;;;;;;5048852;28;20288;-40
2022/07/06 12:45:32;;;;;;;6.90;1.90;;;;;;;;;;5053721;28;20173;-39
2022/07/06 12:48:05;;;;;;;4.37;2.00;;;;;;;;;;5047689;28;20406;-41
2022/07/06 12:50:35;;;;;;;4.23;1.77;;;;;;;;;;5051688;28;21025;-40
2022/07/06 12:53:02;;;;;;;3.10;1.70;;;;;;;;;;5051766;28;20235;-40
2022/07/06 12:55:29;;;;;;;4.63;1.87;;;;;;;;;;5056188;28;20554;-40
2022/07/06 12:57:56;;;;;;;4.33;1.80;;;;;;;;;;5054256;28;20376;-41
2022/07/06 13:00:23;;;;;;;4.37;1.80;;;;;;;;;;5053437;28;20270;-40
2022/07/06 13:02:53;;;;;;;3.07;1.80;;;;;;;;;;5051535;28;20507;-41
2022/07/06 13:05:28;;;;;;;5.33;1.80;;;;;;;;;;5054924;28;21513;-41
2022/07/06 13:07:55;;;;;;;6.43;2.33;;;;;;;;;;5051016;28;20202;-42
2022/07/06 13:10:22;;;;;;;5.03;1.50;;;;;;;;;;5052529;28;20248;-42
2022/07/06 13:12:48;;;;;;;2.83;1.80;;;;;;;;;;5050051;28;20177;-40
2022/07/06 13:15:15;;;;;;;1.87;1.37;;;;;;;;;;5045714;28;20181;-42
2022/07/06 13:17:41;;;;;;;5.00;1.70;;;;;;;;;;5044558;28;20196;-41
2022/07/06 13:20:12;;;;;;;5.80;1.70;;;;;;;;;;5047160;28;20744;-42
2022/07/06 13:22:38;;;;;;;1.67;1.37;;;;;;;;;;5050244;28;20203;-40
2022/07/06 13:25:05;;;;;;;3.30;1.70;;;;;;;;;;5049457;28;20183;-42
2022/07/06 13:27:31;;;;;;;2.77;1.77;;;;;;;;;;5046088;28;20167;-41
2022/07/06 13:29:57;;;;;;;3.13;1.57;;;;;;;;;;5041238;28;20432;-41
2022/07/06 13:32:23;;;;;;;2.47;1.60;;;;;;;;;;5043476;28;20274;-40
2022/07/06 13:34:50;;;;;;;3.97;1.63;;;;;;;;;;5048822;28;20210;-42
2022/07/06 13:37:16;;;;;;;3.43;1.57;;;;;;;;;;5049556;28;21292;-41
2022/07/06 13:39:42;;;;;;;3.57;1.80;;;;;;;;;;5045144;28;20187;-39
2022/07/06 13:42:09;;;;;;;2.20;1.50;;;;;;;;;;5043255;28;21045;-41
2022/07/06 13:44:35;;;;;;;7.33;1.90;;;;;;;;;;5046797;28;20802;-43
2022/07/06 13:47:01;;;;;;;3.43;1.70;;;;;;;;;;5045023;28;20534;-40
2022/07/06 13:49:27;;;;;;;4.93;1.93;;;;;;;;;;5035023;28;20634;-41
2022/07/06 13:51:54;;;;;;;3.23;1.70;;;;;;;;;;5045371;28;20190;-41
2022/07/06 13:54:21;;;;;;;5.63;1.73;;;;;;;;;;5045608;28;20767;-42
2022/07/06 13:56:47;;;;;;;6.33;1.80;;;;;;;;;;5046098;28;20178;-41
2022/07/06 13:59:13;;;;;;;3.43;1.97;;;;;;;;;;5046661;28;20251;-41
2022/07/06 14:01:39;;;;;;;2.57;1.53;;;;;;;;;;5047929;28;20741;-41
2022/07/06 14:04:05;;;;;;;2.37;1.43;;;;;;;;;;5043134;28;20178;-41
2022/07/06 14:06:31;;;;;;;2.83;1.53;;;;;;;;;;5046601;28;20615;-41
2022/07/06 14:08:57;;;;;;;3.10;1.30;;;;;;;;;;5043316;28;21108;-41
2022/07/06 14:11:23;;;;;;;4.10;1.73;;;;;;;;;;5048355;28;20491;-41
2022/07/06 14:13:49;;;;;;;4.80;1.60;;;;;;;;;;5045123;28;20210;-41
2022/07/06 14:16:15;;;;;;;2.80;1.60;;;;;;;;;;5044582;28;20187;-41
2022/07/06 14:18:43;;;;;;;4.10;1.60;;;;;;;;;;5037695;28;20460;-41
2022/07/06 14:21:09;;;;;;;4.40;1.70;;;;;;;;;;5045679;28;20200;-41
2022/07/06 14:23:35;;;;;;;4.33;1.90;;;;;;;;;;5044650;28;20206;-41
2022/07/06 14:26:01;;;;;;;6.03;2.00;;;;;;;;;;5043007;28;20489;-42
2022/07/06 14:28:27;;;;;;;2.77;1.93;;;;;;;;;;5043972;28;20292;-41
2022/07/06 14:30:54;;;;;;;4.43;1.70;;;;;;;;;;5045668;28;20528;-39
2022/07/06 14:33:20;;;;;;;3.80;1.83;;;;;;;;;;5045241;28;20361;-39
2022/07/06 14:35:48;;;;;;;4.93;1.90;;;;;;;;;;5047438;28;20175;-40
2022/07/06 14:38:15;;;;;;;1.90;1.60;;;;;;;;;;5047725;28;20180;-43
2022/07/06 14:40:41;;;;;;;6.47;1.87;;;;;;;;;;5045963;28;20173;-43
2022/07/06 14:43:07;;;;;;;2.67;1.43;;;;;;;;;;5048089;28;20182;-42
2022/07/06 14:45:33;;;;;;;2.87;1.73;;;;;;;;;;5044756;28;20180;-40
2022/07/06 14:47:59;;;;;;;2.57;1.70;;;;;;;;;;5037944;28;20203;-41